sensor_id;sensor_type;location;lat;lon;timestamp;P1;durP1;ratioP1;P2;durP2;ratioP2
7383;SDS011;3733;47.994;8.820;2023-03-30T00:01:46;15.03;;;3.27;;
7383;SDS011;3733;47.994;8.820;2023-03-30T00:04:12;11.33;;;3.80;;
7383;SDS011;3733;47.994;8.820;2023-03-30T00:06:38;12.97;;;3.30;;
7383;SDS011;3733;47.994;8.820;2023-03-30T00:09:06;13.30;;;3.83;;
7383;SDS011;3733;47.994;8.820;2023-03-30T00:11:31;30.50;;;4.20;;
7383;SDS011;3733;47.994;8.820;2023-03-30T00:13:58;8.43;;;2.90;;
7383;SDS011;3733;47.994;8.820;2023-03-30T00:16:24;11.87;;;3.60;;
7383;SDS011;3733;47.994;8.820;2023-03-30T00:18:51;15.33;;;3.70;;
7383;SDS011;3733;47.994;8.820;2023-03-30T00:21:16;14.07;;;4.20;;
7383;SDS011;3733;47.994;8.820;2023-03-30T00:23:44;12.53;;;3.20;;
7383;SDS011;3733;47.994;8.820;2023-03-30T00:26:13;10.70;;;3.40;;
7383;SDS011;3733;47.994;8.820;2023-03-30T00:28:39;14.63;;;3.23;;
7383;SDS011;3733;47.994;8.820;2023-03-30T00:31:05;16.70;;;3.50;;
7383;SDS011;3733;47.994;8.820;2023-03-30T00:33:31;7.33;;;3.37;;
7383;SDS011;3733;47.994;8.820;2023-03-30T00:35:57;15.90;;;3.60;;
7383;SDS011;3733;47.994;8.820;2023-03-30T00:38:23;14.00;;;3.93;;
7383;SDS011;3733;47.994;8.820;2023-03-30T00:40:51;16.60;;;3.97;;
7383;SDS011;3733;47.994;8.820;2023-03-30T00:43:17;10.50;;;3.40;;
7383;SDS011;3733;47.994;8.820;2023-03-30T00:45:43;15.97;;;4.30;;
7383;SDS011;3733;47.994;8.820;2023-03-30T00:48:10;11.80;;;3.30;;
7383;SDS011;3733;47.994;8.820;2023-03-30T00:50:51;8.80;;;3.30;;
7383;SDS011;3733;47.994;8.820;2023-03-30T00:53:23;12.33;;;3.93;;
7383;SDS011;3733;47.994;8.820;2023-03-30T00:55:52;13.73;;;4.23;;
7383;SDS011;3733;47.994;8.820;2023-03-30T00:58:20;17.27;;;3.90;;
7383;SDS011;3733;47.994;8.820;2023-03-30T01:00:46;12.10;;;4.10;;
7383;SDS011;3733;47.994;8.820;2023-03-30T01:03:20;12.40;;;3.73;;
7383;SDS011;3733;47.994;8.820;2023-03-30T01:06:02;16.83;;;3.93;;
7383;SDS011;3733;47.994;8.820;2023-03-30T01:08:31;13.73;;;4.37;;
7383;SDS011;3733;47.994;8.820;2023-03-30T01:10:58;8.70;;;3.53;;
7383;SDS011;3733;47.994;8.820;2023-03-30T01:13:26;10.13;;;3.70;;
7383;SDS011;3733;47.994;8.820;2023-03-30T01:18:56;8.70;;;3.47;;
7383;SDS011;3733;47.994;8.820;2023-03-30T01:43:35;11.63;;;4.40;;
7383;SDS011;3733;47.994;8.820;2023-03-30T01:48:52;14.57;;;3.80;;
7383;SDS011;3733;47.994;8.820;2023-03-30T01:51:30;11.73;;;3.90;;
7383;SDS011;3733;47.994;8.820;2023-03-30T01:56:35;9.13;;;3.47;;
7383;SDS011;3733;47.994;8.820;2023-03-30T01:59:10;15.13;;;3.90;;
7383;SDS011;3733;47.994;8.820;2023-03-30T02:01:57;20.17;;;3.70;;
7383;SDS011;3733;47.994;8.820;2023-03-30T02:04:26;16.03;;;3.17;;
7383;SDS011;3733;47.994;8.820;2023-03-30T02:06:57;20.53;;;3.80;;
7383;SDS011;3733;47.994;8.820;2023-03-30T02:09:26;13.10;;;3.60;;
7383;SDS011;3733;47.994;8.820;2023-03-30T02:11:53;29.83;;;4.60;;
7383;SDS011;3733;47.994;8.820;2023-03-30T02:14:24;14.30;;;3.20;;
7383;SDS011;3733;47.994;8.820;2023-03-30T02:16:56;21.00;;;4.30;;
7383;SDS011;3733;47.994;8.820;2023-03-30T02:19:27;13.43;;;4.03;;
7383;SDS011;3733;47.994;8.820;2023-03-30T02:21:54;16.97;;;3.20;;
7383;SDS011;3733;47.994;8.820;2023-03-30T02:24:21;12.87;;;4.10;;
7383;SDS011;3733;47.994;8.820;2023-03-30T02:26:51;13.90;;;4.73;;
7383;SDS011;3733;47.994;8.820;2023-03-30T02:29:18;16.60;;;3.73;;
7383;SDS011;3733;47.994;8.820;2023-03-30T02:31:47;17.47;;;4.23;;
7383;SDS011;3733;47.994;8.820;2023-03-30T02:37:02;37.27;;;5.00;;
7383;SDS011;3733;47.994;8.820;2023-03-30T02:53:51;13.80;;;3.47;;
7383;SDS011;3733;47.994;8.820;2023-03-30T02:56:36;11.47;;;4.60;;
7383;SDS011;3733;47.994;8.820;2023-03-30T03:02:42;8.23;;;4.00;;
7383;SDS011;3733;47.994;8.820;2023-03-30T03:05:13;13.37;;;3.93;;
7383;SDS011;3733;47.994;8.820;2023-03-30T03:07:40;13.77;;;3.50;;
7383;SDS011;3733;47.994;8.820;2023-03-30T03:10:06;16.10;;;4.10;;
7383;SDS011;3733;47.994;8.820;2023-03-30T03:12:33;10.70;;;3.40;;
7383;SDS011;3733;47.994;8.820;2023-03-30T03:14:59;19.50;;;5.60;;
7383;SDS011;3733;47.994;8.820;2023-03-30T03:17:29;14.77;;;4.07;;
7383;SDS011;3733;47.994;8.820;2023-03-30T03:20:02;9.83;;;3.83;;
7383;SDS011;3733;47.994;8.820;2023-03-30T03:22:28;19.30;;;5.27;;
7383;SDS011;3733;47.994;8.820;2023-03-30T03:24:55;20.40;;;4.40;;
7383;SDS011;3733;47.994;8.820;2023-03-30T03:27:20;15.23;;;4.60;;
7383;SDS011;3733;47.994;8.820;2023-03-30T03:29:46;11.30;;;4.43;;
7383;SDS011;3733;47.994;8.820;2023-03-30T03:32:12;15.70;;;3.80;;
7383;SDS011;3733;47.994;8.820;2023-03-30T03:34:37;15.87;;;4.83;;
7383;SDS011;3733;47.994;8.820;2023-03-30T03:37:03;10.87;;;3.97;;
7383;SDS011;3733;47.994;8.820;2023-03-30T03:39:29;14.80;;;4.30;;
7383;SDS011;3733;47.994;8.820;2023-03-30T03:41:55;18.70;;;4.87;;
7383;SDS011;3733;47.994;8.820;2023-03-30T03:44:21;13.20;;;4.63;;
7383;SDS011;3733;47.994;8.820;2023-03-30T03:46:47;16.10;;;4.33;;
7383;SDS011;3733;47.994;8.820;2023-03-30T03:49:12;13.73;;;4.60;;
7383;SDS011;3733;47.994;8.820;2023-03-30T03:51:38;14.70;;;5.30;;
7383;SDS011;3733;47.994;8.820;2023-03-30T03:54:03;18.23;;;4.30;;
7383;SDS011;3733;47.994;8.820;2023-03-30T03:56:29;21.67;;;4.70;;
7383;SDS011;3733;47.994;8.820;2023-03-30T03:58:55;15.60;;;5.60;;
7383;SDS011;3733;47.994;8.820;2023-03-30T04:01:21;8.93;;;4.30;;
7383;SDS011;3733;47.994;8.820;2023-03-30T04:03:46;19.77;;;5.40;;
7383;SDS011;3733;47.994;8.820;2023-03-30T04:06:12;18.47;;;4.30;;
7383;SDS011;3733;47.994;8.820;2023-03-30T04:08:38;17.07;;;6.20;;
7383;SDS011;3733;47.994;8.820;2023-03-30T04:11:07;17.70;;;4.60;;
7383;SDS011;3733;47.994;8.820;2023-03-30T04:13:35;12.47;;;4.20;;
7383;SDS011;3733;47.994;8.820;2023-03-30T04:16:02;28.90;;;5.00;;
7383;SDS011;3733;47.994;8.820;2023-03-30T04:18:28;12.33;;;3.90;;
7383;SDS011;3733;47.994;8.820;2023-03-30T04:20:57;16.57;;;3.97;;
7383;SDS011;3733;47.994;8.820;2023-03-30T04:23:26;15.47;;;4.23;;
7383;SDS011;3733;47.994;8.820;2023-03-30T04:26:05;13.33;;;4.47;;
7383;SDS011;3733;47.994;8.820;2023-03-30T04:28:32;17.07;;;4.80;;
7383;SDS011;3733;47.994;8.820;2023-03-30T04:31:03;23.33;;;4.80;;
7383;SDS011;3733;47.994;8.820;2023-03-30T04:33:30;11.57;;;4.20;;
7383;SDS011;3733;47.994;8.820;2023-03-30T04:35:59;9.23;;;5.70;;
7383;SDS011;3733;47.994;8.820;2023-03-30T04:38:25;10.27;;;4.47;;
7383;SDS011;3733;47.994;8.820;2023-03-30T04:40:52;16.23;;;4.90;;
7383;SDS011;3733;47.994;8.820;2023-03-30T04:43:19;16.17;;;5.90;;
7383;SDS011;3733;47.994;8.820;2023-03-30T04:45:49;15.77;;;4.67;;
7383;SDS011;3733;47.994;8.820;2023-03-30T04:48:19;11.93;;;4.30;;
7383;SDS011;3733;47.994;8.820;2023-03-30T04:50:47;15.93;;;4.63;;
7383;SDS011;3733;47.994;8.820;2023-03-30T04:53:14;13.57;;;5.50;;
7383;SDS011;3733;47.994;8.820;2023-03-30T04:55:40;13.80;;;5.30;;
7383;SDS011;3733;47.994;8.820;2023-03-30T04:58:08;22.07;;;5.23;;
7383;SDS011;3733;47.994;8.820;2023-03-30T05:00:36;19.60;;;5.50;;
7383;SDS011;3733;47.994;8.820;2023-03-30T05:03:02;14.77;;;4.97;;
7383;SDS011;3733;47.994;8.820;2023-03-30T05:05:28;19.87;;;5.77;;
7383;SDS011;3733;47.994;8.820;2023-03-30T05:07:54;15.33;;;4.63;;
7383;SDS011;3733;47.994;8.820;2023-03-30T05:10:20;15.33;;;4.30;;
7383;SDS011;3733;47.994;8.820;2023-03-30T05:12:46;12.87;;;4.87;;
7383;SDS011;3733;47.994;8.820;2023-03-30T05:15:12;14.80;;;5.37;;
7383;SDS011;3733;47.994;8.820;2023-03-30T05:17:38;21.97;;;5.83;;
7383;SDS011;3733;47.994;8.820;2023-03-30T05:20:04;18.13;;;6.00;;
7383;SDS011;3733;47.994;8.820;2023-03-30T05:22:32;15.07;;;4.90;;
7383;SDS011;3733;47.994;8.820;2023-03-30T05:24:59;15.87;;;5.23;;
7383;SDS011;3733;47.994;8.820;2023-03-30T05:27:25;16.63;;;5.70;;
7383;SDS011;3733;47.994;8.820;2023-03-30T05:29:51;12.47;;;5.50;;
7383;SDS011;3733;47.994;8.820;2023-03-30T05:32:17;16.10;;;5.70;;
7383;SDS011;3733;47.994;8.820;2023-03-30T05:34:42;30.43;;;8.60;;
7383;SDS011;3733;47.994;8.820;2023-03-30T05:37:08;16.97;;;7.17;;
7383;SDS011;3733;47.994;8.820;2023-03-30T05:39:34;16.10;;;5.80;;
7383;SDS011;3733;47.994;8.820;2023-03-30T05:42:00;13.57;;;5.40;;
7383;SDS011;3733;47.994;8.820;2023-03-30T05:44:26;23.40;;;5.57;;
7383;SDS011;3733;47.994;8.820;2023-03-30T05:46:52;30.33;;;6.10;;
7383;SDS011;3733;47.994;8.820;2023-03-30T05:49:17;23.93;;;5.70;;
7383;SDS011;3733;47.994;8.820;2023-03-30T05:51:43;20.60;;;6.00;;
7383;SDS011;3733;47.994;8.820;2023-03-30T05:54:11;24.10;;;6.23;;
7383;SDS011;3733;47.994;8.820;2023-03-30T05:56:38;15.90;;;6.47;;
7383;SDS011;3733;47.994;8.820;2023-03-30T05:59:06;14.80;;;6.57;;
7383;SDS011;3733;47.994;8.820;2023-03-30T06:01:33;17.80;;;6.43;;
7383;SDS011;3733;47.994;8.820;2023-03-30T06:03:58;16.70;;;5.90;;
7383;SDS011;3733;47.994;8.820;2023-03-30T06:06:24;16.03;;;5.47;;
7383;SDS011;3733;47.994;8.820;2023-03-30T06:08:51;17.07;;;5.90;;
7383;SDS011;3733;47.994;8.820;2023-03-30T06:11:16;14.20;;;6.17;;
7383;SDS011;3733;47.994;8.820;2023-03-30T06:13:42;15.97;;;4.97;;
7383;SDS011;3733;47.994;8.820;2023-03-30T06:16:08;16.50;;;5.03;;
7383;SDS011;3733;47.994;8.820;2023-03-30T06:18:33;16.40;;;5.40;;
7383;SDS011;3733;47.994;8.820;2023-03-30T06:20:59;14.67;;;5.03;;
7383;SDS011;3733;47.994;8.820;2023-03-30T06:23:30;16.40;;;5.90;;
7383;SDS011;3733;47.994;8.820;2023-03-30T06:25:57;20.07;;;6.13;;
7383;SDS011;3733;47.994;8.820;2023-03-30T06:28:23;13.67;;;5.73;;
7383;SDS011;3733;47.994;8.820;2023-03-30T06:30:49;15.00;;;6.30;;
7383;SDS011;3733;47.994;8.820;2023-03-30T06:33:15;19.90;;;6.43;;
7383;SDS011;3733;47.994;8.820;2023-03-30T06:35:45;19.93;;;6.90;;
7383;SDS011;3733;47.994;8.820;2023-03-30T06:38:12;28.37;;;7.57;;
7383;SDS011;3733;47.994;8.820;2023-03-30T06:40:38;25.20;;;7.47;;
7383;SDS011;3733;47.994;8.820;2023-03-30T06:43:05;26.33;;;9.97;;
7383;SDS011;3733;47.994;8.820;2023-03-30T06:45:31;21.47;;;8.37;;
7383;SDS011;3733;47.994;8.820;2023-03-30T06:47:57;18.17;;;6.37;;
7383;SDS011;3733;47.994;8.820;2023-03-30T06:50:23;18.47;;;5.93;;
7383;SDS011;3733;47.994;8.820;2023-03-30T06:52:48;16.43;;;4.80;;
7383;SDS011;3733;47.994;8.820;2023-03-30T06:55:14;28.73;;;6.50;;
7383;SDS011;3733;47.994;8.820;2023-03-30T06:57:40;18.37;;;7.50;;
7383;SDS011;3733;47.994;8.820;2023-03-30T07:00:06;17.10;;;8.20;;
7383;SDS011;3733;47.994;8.820;2023-03-30T07:02:39;14.97;;;6.83;;
7383;SDS011;3733;47.994;8.820;2023-03-30T07:05:06;16.60;;;7.53;;
7383;SDS011;3733;47.994;8.820;2023-03-30T07:07:32;23.83;;;7.17;;
7383;SDS011;3733;47.994;8.820;2023-03-30T07:09:58;18.93;;;7.20;;
7383;SDS011;3733;47.994;8.820;2023-03-30T07:12:23;15.03;;;7.00;;
7383;SDS011;3733;47.994;8.820;2023-03-30T07:14:49;18.20;;;8.23;;
7383;SDS011;3733;47.994;8.820;2023-03-30T07:17:15;21.20;;;8.50;;
7383;SDS011;3733;47.994;8.820;2023-03-30T07:19:40;23.73;;;8.87;;
7383;SDS011;3733;47.994;8.820;2023-03-30T07:22:06;27.03;;;10.37;;
7383;SDS011;3733;47.994;8.820;2023-03-30T07:24:32;30.37;;;7.77;;
7383;SDS011;3733;47.994;8.820;2023-03-30T07:26:58;26.43;;;8.07;;
7383;SDS011;3733;47.994;8.820;2023-03-30T07:29:23;26.47;;;7.70;;
7383;SDS011;3733;47.994;8.820;2023-03-30T07:31:51;24.40;;;7.63;;
7383;SDS011;3733;47.994;8.820;2023-03-30T07:34:16;20.90;;;5.27;;
7383;SDS011;3733;47.994;8.820;2023-03-30T07:36:42;24.40;;;5.80;;
7383;SDS011;3733;47.994;8.820;2023-03-30T07:39:08;17.07;;;6.27;;
7383;SDS011;3733;47.994;8.820;2023-03-30T07:41:35;22.83;;;6.10;;
7383;SDS011;3733;47.994;8.820;2023-03-30T07:44:00;20.03;;;6.30;;
7383;SDS011;3733;47.994;8.820;2023-03-30T07:46:26;18.77;;;6.13;;
7383;SDS011;3733;47.994;8.820;2023-03-30T07:48:52;16.80;;;6.50;;
7383;SDS011;3733;47.994;8.820;2023-03-30T07:51:18;14.47;;;5.87;;
7383;SDS011;3733;47.994;8.820;2023-03-30T07:53:45;21.30;;;5.50;;
7383;SDS011;3733;47.994;8.820;2023-03-30T07:56:12;17.73;;;6.57;;
7383;SDS011;3733;47.994;8.820;2023-03-30T07:58:37;18.97;;;4.47;;
7383;SDS011;3733;47.994;8.820;2023-03-30T08:01:04;26.37;;;5.80;;
7383;SDS011;3733;47.994;8.820;2023-03-30T08:03:30;20.80;;;7.03;;
7383;SDS011;3733;47.994;8.820;2023-03-30T08:05:57;13.97;;;6.00;;
7383;SDS011;3733;47.994;8.820;2023-03-30T08:08:25;18.40;;;6.70;;
7383;SDS011;3733;47.994;8.820;2023-03-30T08:10:51;16.80;;;7.07;;
7383;SDS011;3733;47.994;8.820;2023-03-30T08:13:17;21.80;;;7.60;;
7383;SDS011;3733;47.994;8.820;2023-03-30T08:15:43;18.93;;;7.70;;
7383;SDS011;3733;47.994;8.820;2023-03-30T08:18:10;25.03;;;7.23;;
7383;SDS011;3733;47.994;8.820;2023-03-30T08:20:37;17.57;;;7.23;;
7383;SDS011;3733;47.994;8.820;2023-03-30T08:23:03;15.13;;;6.30;;
7383;SDS011;3733;47.994;8.820;2023-03-30T08:25:30;20.83;;;7.60;;
7383;SDS011;3733;47.994;8.820;2023-03-30T08:27:56;22.27;;;7.00;;
7383;SDS011;3733;47.994;8.820;2023-03-30T08:30:22;25.67;;;6.90;;
7383;SDS011;3733;47.994;8.820;2023-03-30T08:32:48;22.03;;;6.60;;
7383;SDS011;3733;47.994;8.820;2023-03-30T08:35:15;13.23;;;7.03;;
7383;SDS011;3733;47.994;8.820;2023-03-30T08:37:41;22.33;;;6.70;;
7383;SDS011;3733;47.994;8.820;2023-03-30T08:40:09;18.40;;;5.87;;
7383;SDS011;3733;47.994;8.820;2023-03-30T08:45:14;23.97;;;6.77;;
7383;SDS011;3733;47.994;8.820;2023-03-30T08:47:41;15.00;;;5.60;;
7383;SDS011;3733;47.994;8.820;2023-03-30T08:50:13;12.60;;;4.63;;
7383;SDS011;3733;47.994;8.820;2023-03-30T08:52:43;26.80;;;7.40;;
7383;SDS011;3733;47.994;8.820;2023-03-30T08:55:19;17.13;;;6.00;;
7383;SDS011;3733;47.994;8.820;2023-03-30T09:06:25;20.13;;;4.90;;
7383;SDS011;3733;47.994;8.820;2023-03-30T09:09:12;24.97;;;5.03;;
7383;SDS011;3733;47.994;8.820;2023-03-30T09:11:40;11.83;;;4.00;;
7383;SDS011;3733;47.994;8.820;2023-03-30T09:14:07;15.83;;;4.10;;
7383;SDS011;3733;47.994;8.820;2023-03-30T09:16:43;20.67;;;4.87;;
7383;SDS011;3733;47.994;8.820;2023-03-30T09:19:18;14.63;;;4.67;;
7383;SDS011;3733;47.994;8.820;2023-03-30T09:21:57;19.63;;;4.50;;
7383;SDS011;3733;47.994;8.820;2023-03-30T09:24:25;25.13;;;5.20;;
7383;SDS011;3733;47.994;8.820;2023-03-30T09:26:53;23.33;;;5.87;;
7383;SDS011;3733;47.994;8.820;2023-03-30T09:29:48;20.70;;;5.00;;
7383;SDS011;3733;47.994;8.820;2023-03-30T09:32:21;15.63;;;4.90;;
7383;SDS011;3733;47.994;8.820;2023-03-30T09:35:31;19.10;;;4.60;;
7383;SDS011;3733;47.994;8.820;2023-03-30T09:37:50;20.10;;;5.00;;
7383;SDS011;3733;47.994;8.820;2023-03-30T09:40:18;15.83;;;4.93;;
7383;SDS011;3733;47.994;8.820;2023-03-30T09:45:33;20.67;;;4.90;;
7383;SDS011;3733;47.994;8.820;2023-03-30T09:48:03;12.80;;;7.27;;
7383;SDS011;3733;47.994;8.820;2023-03-30T09:50:33;13.17;;;5.50;;
7383;SDS011;3733;47.994;8.820;2023-03-30T09:53:19;9.80;;;4.70;;
7383;SDS011;3733;47.994;8.820;2023-03-30T09:56:00;14.67;;;5.23;;
7383;SDS011;3733;47.994;8.820;2023-03-30T09:58:34;13.90;;;5.30;;
7383;SDS011;3733;47.994;8.820;2023-03-30T10:03:36;13.70;;;7.00;;
7383;SDS011;3733;47.994;8.820;2023-03-30T10:08:31;14.87;;;5.00;;
7383;SDS011;3733;47.994;8.820;2023-03-30T10:11:00;22.43;;;5.67;;
7383;SDS011;3733;47.994;8.820;2023-03-30T10:13:30;12.37;;;5.23;;
7383;SDS011;3733;47.994;8.820;2023-03-30T10:16:32;15.80;;;5.90;;
7383;SDS011;3733;47.994;8.820;2023-03-30T10:18:53;15.40;;;6.00;;
7383;SDS011;3733;47.994;8.820;2023-03-30T10:21:23;15.57;;;5.87;;
7383;SDS011;3733;47.994;8.820;2023-03-30T10:24:09;14.83;;;5.33;;
7383;SDS011;3733;47.994;8.820;2023-03-30T10:26:47;15.60;;;5.77;;
7383;SDS011;3733;47.994;8.820;2023-03-30T10:29:21;18.90;;;6.00;;
7383;SDS011;3733;47.994;8.820;2023-03-30T10:31:57;14.93;;;7.17;;
7383;SDS011;3733;47.994;8.820;2023-03-30T10:34:35;23.47;;;5.90;;
7383;SDS011;3733;47.994;8.820;2023-03-30T10:37:50;15.10;;;6.00;;
7383;SDS011;3733;47.994;8.820;2023-03-30T10:39:50;15.20;;;5.90;;
7383;SDS011;3733;47.994;8.820;2023-03-30T10:42:18;15.70;;;6.67;;
7383;SDS011;3733;47.994;8.820;2023-03-30T10:44:49;17.10;;;6.40;;
7383;SDS011;3733;47.994;8.820;2023-03-30T10:52:46;15.07;;;5.73;;
7383;SDS011;3733;47.994;8.820;2023-03-30T10:55:28;13.37;;;4.53;;
7383;SDS011;3733;47.994;8.820;2023-03-30T11:00:28;11.10;;;5.37;;
7383;SDS011;3733;47.994;8.820;2023-03-30T11:03:12;14.60;;;5.30;;
7383;SDS011;3733;47.994;8.820;2023-03-30T11:05:48;12.03;;;5.27;;
7383;SDS011;3733;47.994;8.820;2023-03-30T11:08:31;10.90;;;5.83;;
7383;SDS011;3733;47.994;8.820;2023-03-30T11:11:02;12.00;;;5.70;;
7383;SDS011;3733;47.994;8.820;2023-03-30T11:13:30;13.10;;;5.70;;
7383;SDS011;3733;47.994;8.820;2023-03-30T11:16:02;11.87;;;6.40;;
7383;SDS011;3733;47.994;8.820;2023-03-30T11:23:59;15.10;;;5.87;;
7383;SDS011;3733;47.994;8.820;2023-03-30T11:26:54;8.40;;;4.83;;
7383;SDS011;3733;47.994;8.820;2023-03-30T11:37:44;16.17;;;6.60;;
7383;SDS011;3733;47.994;8.820;2023-03-30T11:40:21;11.00;;;5.60;;
7383;SDS011;3733;47.994;8.820;2023-03-30T11:42:52;19.73;;;5.73;;
7383;SDS011;3733;47.994;8.820;2023-03-30T12:01:46;13.70;;;6.00;;
7383;SDS011;3733;47.994;8.820;2023-03-30T12:07:12;10.90;;;5.50;;
7383;SDS011;3733;47.994;8.820;2023-03-30T12:09:53;8.97;;;4.90;;
7383;SDS011;3733;47.994;8.820;2023-03-30T12:12:35;9.93;;;3.93;;
7383;SDS011;3733;47.994;8.820;2023-03-30T12:17:54;6.60;;;4.00;;
7383;SDS011;3733;47.994;8.820;2023-03-30T12:20:29;12.10;;;4.03;;
7383;SDS011;3733;47.994;8.820;2023-03-30T12:28:15;10.27;;;3.67;;
7383;SDS011;3733;47.994;8.820;2023-03-30T12:31:04;7.40;;;3.70;;
7383;SDS011;3733;47.994;8.820;2023-03-30T12:38:55;7.50;;;3.80;;
7383;SDS011;3733;47.994;8.820;2023-03-30T12:41:26;6.73;;;3.70;;
7383;SDS011;3733;47.994;8.820;2023-03-30T12:47:25;7.07;;;4.10;;
7383;SDS011;3733;47.994;8.820;2023-03-30T12:55:31;6.90;;;3.73;;
7383;SDS011;3733;47.994;8.820;2023-03-30T12:58:25;8.53;;;3.80;;
7383;SDS011;3733;47.994;8.820;2023-03-30T13:04:00;13.73;;;4.47;;
7383;SDS011;3733;47.994;8.820;2023-03-30T13:09:02;5.07;;;3.50;;
7383;SDS011;3733;47.994;8.820;2023-03-30T13:22:18;9.00;;;3.43;;
7383;SDS011;3733;47.994;8.820;2023-03-30T13:24:58;5.40;;;3.40;;
7383;SDS011;3733;47.994;8.820;2023-03-30T13:27:48;6.13;;;3.50;;
7383;SDS011;3733;47.994;8.820;2023-03-30T13:30:16;7.30;;;3.10;;
7383;SDS011;3733;47.994;8.820;2023-03-30T13:33:11;6.13;;;3.80;;
7383;SDS011;3733;47.994;8.820;2023-03-30T13:43:52;8.33;;;3.30;;
7383;SDS011;3733;47.994;8.820;2023-03-30T13:46:28;11.53;;;3.00;;
7383;SDS011;3733;47.994;8.820;2023-03-30T13:51:37;6.17;;;3.13;;
7383;SDS011;3733;47.994;8.820;2023-03-30T13:54:09;5.47;;;2.80;;
7383;SDS011;3733;47.994;8.820;2023-03-30T13:56:38;5.10;;;2.70;;
7383;SDS011;3733;47.994;8.820;2023-03-30T13:59:18;7.13;;;3.07;;
7383;SDS011;3733;47.994;8.820;2023-03-30T14:01:48;7.20;;;3.20;;
7383;SDS011;3733;47.994;8.820;2023-03-30T14:04:17;6.53;;;2.70;;
7383;SDS011;3733;47.994;8.820;2023-03-30T14:06:44;3.90;;;2.57;;
7383;SDS011;3733;47.994;8.820;2023-03-30T14:09:13;6.33;;;2.83;;
7383;SDS011;3733;47.994;8.820;2023-03-30T14:11:45;3.10;;;2.27;;
7383;SDS011;3733;47.994;8.820;2023-03-30T14:17:00;3.03;;;2.47;;
7383;SDS011;3733;47.994;8.820;2023-03-30T14:19:31;5.93;;;3.10;;
7383;SDS011;3733;47.994;8.820;2023-03-30T14:21:59;5.43;;;2.87;;
7383;SDS011;3733;47.994;8.820;2023-03-30T14:24:30;2.50;;;1.87;;
7383;SDS011;3733;47.994;8.820;2023-03-30T14:27:00;4.20;;;2.33;;
7383;SDS011;3733;47.994;8.820;2023-03-30T14:29:30;4.07;;;2.20;;
7383;SDS011;3733;47.994;8.820;2023-03-30T14:32:00;7.50;;;2.43;;
7383;SDS011;3733;47.994;8.820;2023-03-30T14:34:30;3.43;;;2.20;;
7383;SDS011;3733;47.994;8.820;2023-03-30T14:37:00;9.20;;;2.60;;
7383;SDS011;3733;47.994;8.820;2023-03-30T14:39:29;6.30;;;2.40;;
7383;SDS011;3733;47.994;8.820;2023-03-30T14:41:58;4.30;;;2.43;;
7383;SDS011;3733;47.994;8.820;2023-03-30T14:44:33;3.37;;;2.00;;
7383;SDS011;3733;47.994;8.820;2023-03-30T14:47:03;4.27;;;2.13;;
7383;SDS011;3733;47.994;8.820;2023-03-30T14:49:29;4.63;;;2.50;;
7383;SDS011;3733;47.994;8.820;2023-03-30T14:52:15;5.40;;;2.20;;
7383;SDS011;3733;47.994;8.820;2023-03-30T14:54:41;5.40;;;2.60;;
7383;SDS011;3733;47.994;8.820;2023-03-30T14:57:09;5.50;;;2.57;;
7383;SDS011;3733;47.994;8.820;2023-03-30T14:59:40;11.87;;;2.87;;
7383;SDS011;3733;47.994;8.820;2023-03-30T15:02:21;8.80;;;2.63;;
7383;SDS011;3733;47.994;8.820;2023-03-30T15:04:49;7.40;;;3.03;;
7383;SDS011;3733;47.994;8.820;2023-03-30T15:07:16;3.70;;;2.33;;
7383;SDS011;3733;47.994;8.820;2023-03-30T15:09:44;4.77;;;3.03;;
7383;SDS011;3733;47.994;8.820;2023-03-30T15:12:22;10.87;;;3.20;;
7383;SDS011;3733;47.994;8.820;2023-03-30T15:14:52;4.47;;;2.63;;
7383;SDS011;3733;47.994;8.820;2023-03-30T15:17:22;5.60;;;3.37;;
7383;SDS011;3733;47.994;8.820;2023-03-30T15:19:50;5.80;;;2.10;;
7383;SDS011;3733;47.994;8.820;2023-03-30T15:24:54;4.60;;;2.50;;
7383;SDS011;3733;47.994;8.820;2023-03-30T15:27:24;4.37;;;2.37;;
7383;SDS011;3733;47.994;8.820;2023-03-30T15:29:49;5.17;;;2.37;;
7383;SDS011;3733;47.994;8.820;2023-03-30T15:32:17;4.80;;;2.80;;
7383;SDS011;3733;47.994;8.820;2023-03-30T15:35:28;3.83;;;2.00;;
7383;SDS011;3733;47.994;8.820;2023-03-30T15:37:49;9.90;;;3.10;;
7383;SDS011;3733;47.994;8.820;2023-03-30T15:40:25;3.80;;;2.30;;
7383;SDS011;3733;47.994;8.820;2023-03-30T15:43:09;8.80;;;3.10;;
7383;SDS011;3733;47.994;8.820;2023-03-30T15:45:38;6.07;;;3.03;;
7383;SDS011;3733;47.994;8.820;2023-03-30T15:48:04;7.93;;;2.73;;
7383;SDS011;3733;47.994;8.820;2023-03-30T15:50:34;3.60;;;2.30;;
7383;SDS011;3733;47.994;8.820;2023-03-30T15:53:03;5.50;;;2.73;;
7383;SDS011;3733;47.994;8.820;2023-03-30T15:55:31;5.40;;;2.67;;
7383;SDS011;3733;47.994;8.820;2023-03-30T15:57:57;4.10;;;2.40;;
7383;SDS011;3733;47.994;8.820;2023-03-30T16:00:26;4.57;;;2.10;;
7383;SDS011;3733;47.994;8.820;2023-03-30T16:02:55;3.00;;;2.50;;
7383;SDS011;3733;47.994;8.820;2023-03-30T16:05:27;6.23;;;2.83;;
7383;SDS011;3733;47.994;8.820;2023-03-30T16:07:54;6.53;;;2.40;;
7383;SDS011;3733;47.994;8.820;2023-03-30T16:10:21;3.77;;;2.43;;
7383;SDS011;3733;47.994;8.820;2023-03-30T16:12:55;5.93;;;2.10;;
7383;SDS011;3733;47.994;8.820;2023-03-30T16:15:22;5.43;;;2.10;;
7383;SDS011;3733;47.994;8.820;2023-03-30T16:17:50;3.97;;;2.40;;
7383;SDS011;3733;47.994;8.820;2023-03-30T16:20:17;6.43;;;2.60;;
7383;SDS011;3733;47.994;8.820;2023-03-30T16:22:45;4.63;;;2.10;;
7383;SDS011;3733;47.994;8.820;2023-03-30T16:25:12;6.20;;;2.00;;
7383;SDS011;3733;47.994;8.820;2023-03-30T16:27:39;6.20;;;2.10;;
7383;SDS011;3733;47.994;8.820;2023-03-30T16:30:39;3.70;;;2.27;;
7383;SDS011;3733;47.994;8.820;2023-03-30T16:33:00;3.83;;;2.20;;
7383;SDS011;3733;47.994;8.820;2023-03-30T16:35:26;5.07;;;2.20;;
7383;SDS011;3733;47.994;8.820;2023-03-30T16:37:52;9.10;;;3.63;;
7383;SDS011;3733;47.994;8.820;2023-03-30T16:40:22;4.40;;;3.20;;
7383;SDS011;3733;47.994;8.820;2023-03-30T16:42:58;10.90;;;4.63;;
7383;SDS011;3733;47.994;8.820;2023-03-30T16:45:24;6.70;;;2.97;;
7383;SDS011;3733;47.994;8.820;2023-03-30T16:47:50;3.47;;;2.57;;
7383;SDS011;3733;47.994;8.820;2023-03-30T16:53:05;6.90;;;3.97;;
7383;SDS011;3733;47.994;8.820;2023-03-30T16:55:32;12.90;;;3.83;;
7383;SDS011;3733;47.994;8.820;2023-03-30T16:57:58;9.50;;;3.50;;
7383;SDS011;3733;47.994;8.820;2023-03-30T17:00:25;9.50;;;4.10;;
7383;SDS011;3733;47.994;8.820;2023-03-30T17:02:53;9.40;;;3.87;;
7383;SDS011;3733;47.994;8.820;2023-03-30T17:05:18;6.80;;;3.53;;
7383;SDS011;3733;47.994;8.820;2023-03-30T17:07:44;8.63;;;4.37;;
7383;SDS011;3733;47.994;8.820;2023-03-30T17:12:42;7.60;;;3.60;;
7383;SDS011;3733;47.994;8.820;2023-03-30T17:15:07;8.20;;;3.00;;
7383;SDS011;3733;47.994;8.820;2023-03-30T17:17:34;10.80;;;3.60;;
7383;SDS011;3733;47.994;8.820;2023-03-30T17:20:21;5.33;;;2.83;;
7383;SDS011;3733;47.994;8.820;2023-03-30T17:22:48;8.53;;;3.70;;
7383;SDS011;3733;47.994;8.820;2023-03-30T17:25:14;17.20;;;6.20;;
7383;SDS011;3733;47.994;8.820;2023-03-30T17:27:41;9.03;;;4.57;;
7383;SDS011;3733;47.994;8.820;2023-03-30T17:30:26;11.70;;;4.10;;
7383;SDS011;3733;47.994;8.820;2023-03-30T17:32:53;4.90;;;2.80;;
7383;SDS011;3733;47.994;8.820;2023-03-30T17:35:19;6.03;;;3.10;;
7383;SDS011;3733;47.994;8.820;2023-03-30T17:37:46;5.13;;;2.80;;
7383;SDS011;3733;47.994;8.820;2023-03-30T17:42:38;7.30;;;2.93;;
7383;SDS011;3733;47.994;8.820;2023-03-30T17:45:03;8.43;;;3.10;;
7383;SDS011;3733;47.994;8.820;2023-03-30T17:47:30;7.70;;;3.40;;
7383;SDS011;3733;47.994;8.820;2023-03-30T17:49:56;6.03;;;3.30;;
7383;SDS011;3733;47.994;8.820;2023-03-30T17:52:23;5.73;;;3.00;;
7383;SDS011;3733;47.994;8.820;2023-03-30T17:54:54;5.80;;;3.27;;
7383;SDS011;3733;47.994;8.820;2023-03-30T17:57:22;8.13;;;3.40;;
7383;SDS011;3733;47.994;8.820;2023-03-30T17:59:48;7.80;;;4.23;;
7383;SDS011;3733;47.994;8.820;2023-03-30T18:02:14;7.50;;;4.07;;
7383;SDS011;3733;47.994;8.820;2023-03-30T18:04:39;7.80;;;4.50;;
7383;SDS011;3733;47.994;8.820;2023-03-30T18:07:05;9.80;;;6.30;;
7383;SDS011;3733;47.994;8.820;2023-03-30T18:09:33;11.73;;;6.30;;
7383;SDS011;3733;47.994;8.820;2023-03-30T18:11:59;10.87;;;6.10;;
7383;SDS011;3733;47.994;8.820;2023-03-30T18:14:25;10.57;;;5.30;;